Time;durP1;ratioP1;P1;durP2;ratioP2;P2;SDS_P1;SDS_P2;PMS_P1;PMS_P2;Temp;Humidity;BMP_temperature;BMP_pressure;BME280_temperature;BME280_humidity;BME280_pressure;Samples;Min_cycle;Max_cycle;Signal;HPM_P1;HPM_P2
2022/08/24 00:02:02;;;;;;;;;25.33;22.67;;;;;22.46;80.78;101082.75;110769;1259;15550;-49
2022/08/24 00:04:30;;;;;;;;;21.67;20.67;;;;;22.35;81.45;101094.89;110715;1259;14996;-47
2022/08/24 00:06:57;;;;;;;;;21.00;21.00;;;;;22.42;81.41;101091.01;110705;1259;15303;-47
2022/08/24 00:09:25;;;;;;;;;23.67;21.00;;;;;22.51;81.00;101090.66;110752;1262;13374;-49
2022/08/24 00:11:52;;;;;;;;;22.67;21.00;;;;;22.57;80.73;101092.34;110793;1259;14876;-47
2022/08/24 00:14:20;;;;;;;;;28.67;27.00;;;;;22.49;80.89;101092.95;110878;1258;14040;-47
2022/08/24 00:16:47;;;;;;;;;24.00;22.00;;;;;22.39;81.37;101088.77;110857;1258;15879;-49
2022/08/24 00:19:15;;;;;;;;;25.00;24.00;;;;;22.32;81.76;101092.93;110810;1258;15621;-47
2022/08/24 00:21:42;;;;;;;;;29.33;24.67;;;;;22.39;81.64;101086.27;110825;1259;15224;-46
2022/08/24 00:24:10;;;;;;;;;25.33;22.67;;;;;22.37;81.55;101092.46;110878;1259;13161;-47
2022/08/24 00:26:37;;;;;;;;;24.50;20.00;;;;;22.35;81.56;101088.91;110720;1259;15545;-48
2022/08/24 00:29:05;;;;;;;;;26.50;25.00;;;;;22.29;82.09;101095.98;110837;1258;14618;-50
2022/08/24 00:31:32;;;;;;;;;30.00;25.50;;;;;22.32;82.00;101100.17;110688;1259;14982;-48
2022/08/24 00:34:00;;;;;;;;;33.33;24.00;;;;;22.30;82.09;101094.75;110716;1258;14909;-48
2022/08/24 00:36:27;;;;;;;;;26.00;24.00;;;;;22.32;82.04;101098.31;110859;1258;13311;-49
2022/08/24 00:38:55;;;;;;;;;27.00;26.50;;;;;22.29;82.19;101104.48;110818;1259;13911;-48
2022/08/24 00:41:22;;;;;;;;;29.33;25.33;;;;;22.29;82.44;101109.12;110800;1258;16721;-47
2022/08/24 00:43:50;;;;;;;;;25.00;24.33;;;;;22.42;82.01;101106.11;110832;1258;15313;-48
2022/08/24 00:46:17;;;;;;;;;24.00;22.00;;;;;22.43;81.81;101107.77;110810;1258;14835;-48
2022/08/24 00:48:44;;;;;;;;;26.00;25.33;;;;;22.48;81.72;101111.78;110825;1258;14802;-50
2022/08/24 00:51:12;;;;;;;;;26.67;23.67;;;;;22.57;81.42;101112.90;110669;1260;13119;-50
2022/08/24 00:53:39;;;;;;;;;28.67;25.33;;;;;22.63;80.98;101110.71;110777;1259;15722;-47
2022/08/24 00:56:07;;;;;;;;;27.33;25.67;;;;;22.49;81.51;101108.79;110815;1259;14420;-49
2022/08/24 00:58:35;;;;;;;;;32.50;25.00;;;;;22.53;81.55;101110.21;110818;1258;14875;-47
2022/08/24 01:01:03;;;;;;;;;27.00;21.00;;;;;22.73;80.95;101106.83;110852;1259;14519;-47
2022/08/24 01:03:30;;;;;;;;;26.33;23.67;;;;;22.89;80.20;101109.12;111080;1258;13216;-48
2022/08/24 01:05:58;;;;;;;;;28.00;25.67;;;;;22.94;79.74;101103.43;110885;1259;14728;-47
2022/08/24 01:08:26;;;;;;;;;31.50;26.50;;;;;22.89;79.91;101109.54;110818;1259;15045;-47
2022/08/24 01:10:53;;;;;;;;;26.50;24.00;;;;;22.71;80.45;101106.90;110831;1259;13491;-49
2022/08/24 01:13:21;;;;;;;;;26.00;25.00;;;;;22.76;80.70;101109.96;110840;1259;13235;-48
2022/08/24 01:15:48;;;;;;;;;33.00;30.00;;;;;22.79;80.47;101108.48;110649;1260;14818;-49
2022/08/24 01:21:00;;;;;;;;;28.00;25.00;;;;;22.64;81.16;101106.05;110815;1258;14998;-48
2022/08/24 01:23:28;;;;;;;;;24.00;22.00;;;;;22.47;81.69;101115.25;110731;1259;15275;-49
2022/08/24 01:25:56;;;;;;;;;27.67;27.00;;;;;22.56;81.78;101115.73;110704;1259;14307;-48
2022/08/24 01:28:23;;;;;;;;;28.33;25.33;;;;;22.56;81.45;101117.89;110844;1259;18157;-46
2022/08/24 01:30:51;;;;;;;;;27.67;26.00;;;;;22.60;81.57;101117.45;110696;1259;15167;-50
2022/08/24 01:33:18;;;;;;;;;31.00;28.50;;;;;22.75;80.94;101112.45;110589;1259;13232;-48
2022/08/24 01:35:45;;;;;;;;;27.33;24.33;;;;;22.69;80.71;101109.43;110859;1258;15335;-49
2022/08/24 01:38:12;;;;;;;;;36.50;27.50;;;;;22.34;81.81;101106.00;110729;1259;15303;-47
2022/08/24 01:40:40;;;;;;;;;29.67;26.33;;;;;22.26;82.67;101105.92;110721;1259;15986;-48
2022/08/24 01:43:07;;;;;;;;;25.67;22.67;;;;;22.40;82.46;101108.85;110685;1259;14456;-48
2022/08/24 01:45:35;;;;;;;;;26.67;24.33;;;;;22.55;81.60;101102.42;110762;1259;13184;-48
2022/08/24 01:48:02;;;;;;;;;25.50;22.00;;;;;22.60;81.19;101097.76;110688;1259;15824;-48
2022/08/24 01:50:30;;;;;;;;;24.67;22.00;;;;;22.37;81.40;101104.48;110736;1259;15532;-48
2022/08/24 01:53:00;;;;;;;;;23.33;21.00;;;;;22.40;81.71;101098.27;110831;1258;16030;-48
2022/08/24 01:55:27;;;;;;;;;29.00;24.50;;;;;22.60;80.92;101104.86;110753;1259;15145;-48
2022/08/24 01:57:55;;;;;;;;;29.00;25.67;;;;;22.37;81.24;101106.18;110656;1259;14400;-48
2022/08/24 02:00:22;;;;;;;;;24.67;19.67;;;;;22.35;81.70;101111.85;110751;1259;15022;-49
2022/08/24 02:02:50;;;;;;;;;24.00;20.00;;;;;22.43;81.52;101117.45;110751;1258;13165;-46
2022/08/24 02:05:17;;;;;;;;;27.00;24.00;;;;;22.58;81.00;101107.36;110897;1257;13114;-49
2022/08/24 02:07:44;;;;;;;;;25.50;22.00;;;;;22.42;80.84;101114.52;111035;1258;13971;-50
2022/08/24 02:10:12;;;;;;;;;23.33;21.33;;;;;22.35;81.57;101114.01;111036;1258;15191;-48
2022/08/24 02:12:39;;;;;;;;;21.33;20.67;;;;;22.44;80.98;101109.38;111110;1258;12895;-48
2022/08/24 02:15:07;;;;;;;;;21.00;19.67;;;;;22.30;81.20;101111.85;111042;1258;13163;-49
2022/08/24 02:17:34;;;;;;;;;20.67;19.33;;;;;22.42;81.06;101119.15;111029;1257;15255;-51
2022/08/24 02:20:02;;;;;;;;;20.00;19.50;;;;;22.39;80.81;101119.58;111005;1258;15614;-50
2022/08/24 02:22:29;;;;;;;;;19.33;17.33;;;;;22.53;80.43;101124.13;111025;1258;15732;-48
2022/08/24 02:24:57;;;;;;;;;21.67;20.00;;;;;22.48;80.26;101124.52;111017;1258;15027;-49
2022/08/24 02:27:24;;;;;;;;;21.00;19.00;;;;;22.38;80.31;101121.27;111005;1258;13235;-48
2022/08/24 02:29:52;;;;;;;;;21.00;19.00;;;;;22.23;80.87;101128.04;111054;1258;14381;-46
2022/08/24 02:32:19;;;;;;;;;20.33;17.00;;;;;22.13;81.38;101126.25;110955;1257;15113;-48
2022/08/24 02:34:47;;;;;;;;;23.00;20.67;;;;;22.18;81.40;101127.26;111021;1258;14688;-49
2022/08/24 02:37:14;;;;;;;;;24.00;21.00;;;;;22.19;81.41;101126.48;110965;1258;14273;-46
2022/08/24 02:39:41;;;;;;;;;27.00;26.00;;;;;22.11;81.70;101133.14;111018;1258;14829;-52
2022/08/24 02:42:09;;;;;;;;;22.33;19.67;;;;;22.09;82.08;101136.70;111041;1258;13115;-48
2022/08/24 02:44:36;;;;;;;;;22.67;20.33;;;;;22.23;81.70;101141.77;111000;1258;14730;-46
2022/08/24 02:47:04;;;;;;;;;19.00;17.67;;;;;22.20;81.27;101142.72;111029;1258;15363;-46
2022/08/24 02:49:31;;;;;;;;;24.33;20.00;;;;;22.25;81.26;101143.20;111022;1258;14663;-48
2022/08/24 02:51:59;;;;;;;;;25.00;23.00;;;;;22.21;81.30;101149.09;111039;1258;15704;-47
2022/08/24 02:54:26;;;;;;;;;23.00;21.00;;;;;22.22;81.24;101151.61;111048;1258;13564;-54
2022/08/24 02:56:54;;;;;;;;;23.00;18.67;;;;;22.26;81.22;101150.61;111000;1258;15454;-47
2022/08/24 02:59:21;;;;;;;;;21.33;19.00;;;;;22.16;81.36;101155.75;111010;1258;15445;-46
2022/08/24 03:01:49;;;;;;;;;23.33;20.33;;;;;22.14;81.61;101153.41;110958;1258;15090;-49
2022/08/24 03:04:16;;;;;;;;;20.00;20.00;;;;;22.06;81.74;101152.77;111032;1257;15207;-49
2022/08/24 03:06:44;;;;;;;;;23.00;19.00;;;;;22.04;81.80;101147.42;111030;1258;14543;-48
2022/08/24 03:09:12;;;;;;;;;44.67;36.00;;;;;21.99;82.26;101154.36;111057;1257;13089;-49
2022/08/24 03:11:40;;;;;;;;;42.00;35.33;;;;;21.99;82.14;101150.73;111033;1259;15237;-47
2022/08/24 03:14:08;;;;;;;;;45.33;38.00;;;;;21.82;82.74;101149.96;111004;1258;14776;-47
2022/08/24 03:16:35;;;;;;;;;38.67;36.67;;;;;21.72;83.47;101150.29;111035;1258;15488;-47
2022/08/24 03:19:02;;;;;;;;;36.00;33.00;;;;;21.73;83.86;101155.16;111017;1257;15267;-48
2022/08/24 03:21:30;;;;;;;;;28.00;26.00;;;;;21.86;83.73;101156.23;111063;1257;13150;-50
2022/08/24 03:23:57;;;;;;;;;31.33;24.67;;;;;21.98;82.88;101153.02;110997;1259;14923;-48
2022/08/24 03:26:24;;;;;;;;;25.33;23.00;;;;;21.98;82.81;101159.88;110973;1258;14610;-48
2022/08/24 03:28:52;;;;;;;;;24.33;20.33;;;;;22.10;82.20;101157.43;111014;1259;15737;-49
2022/08/24 03:31:19;;;;;;;;;23.33;19.33;;;;;22.21;81.81;101171.21;110817;1258;15539;-48
2022/08/24 03:33:47;;;;;;;;;27.33;24.00;;;;;22.21;81.39;101171.31;111043;1257;15012;-49
2022/08/24 03:36:14;;;;;;;;;26.00;23.00;;;;;22.25;81.37;101175.50;111041;1258;12999;-48
2022/08/24 03:38:42;;;;;;;;;24.00;21.00;;;;;22.27;80.95;101176.31;111027;1258;14985;-47
2022/08/24 03:41:09;;;;;;;;;29.33;26.00;;;;;22.23;80.96;101175.36;110969;1258;16005;-48
2022/08/24 03:43:46;;;;;;;;;26.67;25.00;;;;;22.11;81.51;101175.40;110964;1258;14057;-46
2022/08/24 03:46:13;;;;;;;;;25.50;23.50;;;;;22.05;81.83;101172.79;111049;1258;14446;-44
2022/08/24 03:48:41;;;;;;;;;27.67;22.00;;;;;22.14;81.74;101177.82;111078;1258;13199;-47
2022/08/24 03:51:09;;;;;;;;;23.00;21.00;;;;;22.09;81.85;101180.73;111051;1257;12954;-50
2022/08/24 03:53:36;;;;;;;;;28.00;24.00;;;;;22.30;81.18;101182.30;111017;1258;15204;-48
2022/08/24 03:56:03;;;;;;;;;22.67;18.33;;;;;22.19;81.05;101181.45;110933;1257;14900;-48
2022/08/24 03:58:31;;;;;;;;;22.00;20.67;;;;;22.02;81.91;101189.56;110902;1257;14827;-49
2022/08/24 04:00:58;;;;;;;;;25.00;21.00;;;;;21.98;82.33;101196.84;111028;1257;14388;-51
2022/08/24 04:03:27;;;;;;;;;24.00;23.00;;;;;22.08;82.18;101198.53;111043;1257;13389;-45
2022/08/24 04:05:54;;;;;;;;;26.33;24.00;;;;;22.00;82.50;101194.85;111012;1258;13961;-48
2022/08/24 04:08:22;;;;;;;;;23.00;21.50;;;;;22.21;81.86;101190.46;111049;1258;13991;-50
2022/08/24 04:10:49;;;;;;;;;26.33;24.33;;;;;22.30;81.20;101192.89;111037;1258;14729;-48
2022/08/24 04:13:17;;;;;;;;;25.00;22.67;;;;;22.05;81.73;101193.38;111031;1257;16099;-48
2022/08/24 04:15:45;;;;;;;;;20.00;20.00;;;;;22.07;82.00;101196.52;111070;1258;15165;-50
2022/08/24 04:18:12;;;;;;;;;20.50;20.00;;;;;22.12;81.95;101189.64;111105;1258;13039;-47
2022/08/24 04:20:40;;;;;;;;;24.00;21.00;;;;;22.11;82.03;101185.27;111034;1257;14917;-48
2022/08/24 04:23:07;;;;;;;;;21.00;19.67;;;;;22.11;82.00;101184.88;111024;1258;14135;-48
2022/08/24 04:25:35;;;;;;;;;25.33;20.67;;;;;22.19;81.86;101187.60;111019;1257;14582;-48
2022/08/24 04:28:02;;;;;;;;;26.00;24.00;;;;;22.08;82.01;101188.54;111020;1257;14981;-49
2022/08/24 04:30:30;;;;;;;;;30.00;27.00;;;;;21.89;82.79;101190.82;111059;1259;13115;-49
2022/08/24 04:32:58;;;;;;;;;28.00;24.00;;;;;21.91;83.34;101197.84;111009;1258;15368;-47
2022/08/24 04:35:25;;;;;;;;;27.67;24.00;;;;;22.23;82.39;101200.39;110988;1258;14434;-46
2022/08/24 04:37:52;;;;;;;;;25.00;21.00;;;;;22.47;81.20;101201.52;110914;1258;15639;-48
2022/08/24 04:40:20;;;;;;;;;21.67;20.00;;;;;22.43;80.79;101208.54;110980;1257;14061;-50
2022/08/24 04:42:47;;;;;;;;;20.67;19.33;;;;;22.27;81.24;101208.73;110980;1258;14341;-54
2022/08/24 04:45:15;;;;;;;;;25.00;23.33;;;;;22.27;81.51;101204.20;111021;1258;13113;-47
2022/08/24 04:47:42;;;;;;;;;21.33;18.00;;;;;22.37;81.15;101207.40;110757;1258;15283;-51
2022/08/24 04:50:10;;;;;;;;;23.33;23.00;;;;;22.07;81.75;101208.23;111022;1258;14784;-48
2022/08/24 04:52:37;;;;;;;;;21.00;19.50;;;;;21.87;83.07;101210.91;110998;1258;14572;-48
2022/08/24 04:55:05;;;;;;;;;20.50;19.00;;;;;21.86;83.53;101215.20;111032;1258;14831;-47
2022/08/24 04:57:32;;;;;;;;;18.00;18.00;;;;;22.16;82.96;101223.06;111003;1258;13041;-47
2022/08/24 05:00:00;;;;;;;;;19.00;19.00;;;;;22.43;81.67;101219.61;110999;1257;14513;-46
2022/08/24 05:02:27;;;;;;;;;20.00;19.00;;;;;22.52;81.13;101220.73;110902;1258;13904;-48
2022/08/24 05:04:55;;;;;;;;;21.67;20.00;;;;;22.30;81.91;101224.59;110952;1258;14244;-48
2022/08/24 05:07:22;;;;;;;;;19.33;18.33;;;;;22.10;83.17;101220.85;111025;1257;14315;-48
2022/08/24 05:09:49;;;;;;;;;25.00;22.00;;;;;22.40;82.78;101222.34;110852;1258;14360;-47
2022/08/24 05:12:19;;;;;;;;;23.50;20.50;;;;;22.22;82.94;101228.16;110879;1259;12871;-48
2022/08/24 05:14:47;;;;;;;;;24.67;20.00;;;;;22.09;83.80;101227.88;110951;1257;14508;-47
2022/08/24 05:17:14;;;;;;;;;20.50;19.75;;;;;22.33;83.26;101231.85;110151;1258;1050550;-49
2022/08/24 05:19:42;;;;;;;;;23.67;23.00;;;;;22.55;82.04;101234.58;110900;1258;15362;-50
2022/08/24 05:22:09;;;;;;;;;24.00;19.67;;;;;22.51;81.70;101235.76;111003;1258;13504;-46
2022/08/24 05:24:37;;;;;;;;;23.50;20.50;;;;;22.48;82.02;101233.58;111043;1258;10538;-43
2022/08/24 05:27:04;;;;;;;;;23.33;20.67;;;;;22.55;81.78;101238.27;111000;1258;15158;-45
2022/08/24 05:29:33;;;;;;;;;24.00;19.00;;;;;22.45;82.02;101237.63;111012;1258;13042;-48
2022/08/24 05:32:00;;;;;;;;;27.33;24.67;;;;;22.50;82.12;101239.59;110992;1258;14708;-47
2022/08/24 05:34:28;;;;;;;;;28.67;24.00;;;;;22.45;82.33;101241.75;111042;1258;15128;-48
2022/08/24 05:36:55;;;;;;;;;33.33;24.67;;;;;22.49;82.44;101242.19;111038;1257;15374;-47
2022/08/24 05:39:23;;;;;;;;;36.67;31.67;;;;;22.37;82.91;101239.05;111066;1258;13215;-49
2022/08/24 05:41:50;;;;;;;;;32.00;27.00;;;;;22.23;83.81;101239.95;110972;1258;14366;-47
2022/08/24 05:44:17;;;;;;;;;29.33;27.00;;;;;22.30;84.17;101238.77;110949;1258;14602;-44
2022/08/24 05:46:45;;;;;;;;;28.67;27.67;;;;;22.57;83.15;101236.02;110938;1256;14868;-49
2022/08/24 05:49:12;;;;;;;;;30.00;28.00;;;;;22.78;82.01;101236.55;110981;1258;14355;-46
2022/08/24 05:51:41;;;;;;;;;28.50;24.00;;;;;22.81;81.65;101232.32;111729;1258;13121;-51
2022/08/24 05:54:08;;;;;;;;;28.33;24.67;;;;;22.92;81.32;101237.65;110911;1257;16806;-44
2022/08/24 05:56:36;;;;;;;;;30.00;25.00;;;;;22.91;81.37;101236.15;110759;1258;15279;-49
2022/08/24 05:59:03;;;;;;;;;34.67;30.67;;;;;22.84;81.65;101241.88;110817;1257;14478;-46
2022/08/24 06:01:32;;;;;;;;;24.00;23.33;;;;;22.85;81.81;101242.41;110855;1258;14784;-48
2022/08/24 06:03:59;;;;;;;;;38.33;34.33;;;;;22.92;81.48;101238.16;110986;1258;15333;-48
2022/08/24 06:06:27;;;;;;;;;40.67;34.33;;;;;22.84;81.74;101238.18;111031;1258;13113;-49
2022/08/24 06:08:55;;;;;;;;;34.00;30.50;;;;;22.77;82.32;101236.34;111002;1258;14709;-48
2022/08/24 06:11:23;;;;;;;;;33.50;29.50;;;;;22.75;82.37;101240.85;110913;1258;14376;-46
2022/08/24 06:13:51;;;;;;;;;40.50;32.00;;;;;22.54;83.04;101238.34;111003;1258;13169;-48
2022/08/24 06:16:19;;;;;;;;;33.00;28.00;;;;;22.33;84.45;101239.50;110961;1258;15049;-49
2022/08/24 06:18:46;;;;;;;;;33.00;29.00;;;;;22.45;84.51;101242.84;110951;1258;13249;-47
2022/08/24 06:21:14;;;;;;;;;39.00;36.00;;;;;22.76;83.30;101240.16;110811;1257;13301;-47
2022/08/24 06:23:42;;;;;;;;;46.67;38.67;;;;;22.72;82.99;101240.14;110924;1258;13685;-48
2022/08/24 06:28:55;;;;;;;;;38.67;35.33;;;;;22.93;82.02;101244.02;110952;1257;14635;-47
2022/08/24 06:31:23;;;;;;;;;35.33;32.00;;;;;23.06;81.08;101243.79;110929;1258;20135;-47
2022/08/24 06:33:50;;;;;;;;;39.00;37.67;;;;;23.13;80.60;101243.92;111038;1258;13737;-54
2022/08/24 06:36:18;;;;;;;;;35.67;27.33;;;;;23.16;80.42;101246.05;111017;1258;15080;-46
2022/08/24 06:38:45;;;;;;;;;39.33;34.33;;;;;23.12;80.16;101243.17;110800;1258;14688;-47
2022/08/24 06:41:13;;;;;;;;;42.00;36.33;;;;;22.72;81.49;101240.31;110981;1258;14189;-48
2022/08/24 06:43:40;;;;;;;;;36.67;32.33;;;;;22.85;81.63;101235.73;111052;1258;14025;-49
2022/08/24 06:46:08;;;;;;;;;35.33;33.33;;;;;22.98;81.11;101237.31;110945;1258;14450;-48
2022/08/24 06:48:35;;;;;;;;;35.50;30.50;;;;;22.90;81.58;101239.87;110987;1258;13181;-44
2022/08/24 06:51:02;;;;;;;;;31.33;29.67;;;;;23.08;80.98;101246.17;110939;1259;14978;-50
2022/08/24 06:53:30;;;;;;;;;32.67;29.00;;;;;23.18;80.24;101246.77;110977;1257;14842;-48
2022/08/24 06:55:57;;;;;;;;;28.00;26.50;;;;;23.26;79.79;101252.84;110958;1258;13893;-48
2022/08/24 06:58:25;;;;;;;;;32.00;26.00;;;;;23.02;80.48;101249.97;111008;1258;14980;-49
2022/08/24 07:00:53;;;;;;;;;25.00;23.67;;;;;22.88;81.44;101246.04;111017;1258;14222;-52
2022/08/24 07:03:21;;;;;;;;;32.50;28.50;;;;;23.09;80.73;101250.03;110973;1258;13109;-49
2022/08/24 07:05:48;;;;;;;;;31.33;27.67;;;;;23.18;80.17;101250.21;111020;1258;14391;-48
2022/08/24 07:08:16;;;;;;;;;25.67;25.33;;;;;23.11;80.37;101251.42;110917;1258;14082;-46
2022/08/24 07:10:44;;;;;;;;;31.00;26.00;;;;;23.18;80.19;101256.05;110944;1257;14772;-48
2022/08/24 07:13:11;;;;;;;;;35.00;31.33;;;;;23.27;79.69;101259.08;110989;1259;15072;-51
2022/08/24 07:15:38;;;;;;;;;28.67;25.67;;;;;23.33;79.45;101253.94;111059;1258;13144;-47
2022/08/24 07:18:08;;;;;;;;;31.33;27.00;;;;;23.27;79.52;101251.55;110944;1258;14838;-49
2022/08/24 07:20:36;;;;;;;;;31.00;27.50;;;;;23.15;80.15;101260.75;110913;1258;14316;-47
2022/08/24 07:23:03;;;;;;;;;30.67;26.00;;;;;23.29;79.56;101264.51;110795;1257;13930;-46
2022/08/24 07:25:31;;;;;;;;;28.67;24.67;;;;;23.40;78.93;101263.43;110923;1258;14924;-49
2022/08/24 07:27:59;;;;;;;;;30.00;26.00;;;;;23.47;78.45;101269.39;111000;1258;15783;-46
2022/08/24 07:30:26;;;;;;;;;26.67;25.33;;;;;23.48;78.24;101271.88;111052;1258;13173;-49
2022/08/24 07:32:55;;;;;;;;;26.67;23.33;;;;;23.46;78.29;101276.76;110949;1258;14739;-48
2022/08/24 07:35:22;;;;;;;;;30.00;27.50;;;;;23.48;78.29;101277.85;110964;1258;15130;-48
2022/08/24 07:37:50;;;;;;;;;26.33;23.00;;;;;23.31;78.97;101279.70;110949;1258;14448;-49
2022/08/24 07:40:18;;;;;;;;;28.33;24.33;;;;;23.28;79.42;101278.23;111000;1258;14058;-48
2022/08/24 07:42:45;;;;;;;;;27.00;24.00;;;;;23.39;79.14;101282.01;111072;1257;13136;-49
2022/08/24 07:45:12;;;;;;;;;27.33;24.67;;;;;23.30;79.30;101280.77;110957;1258;14691;-49
2022/08/24 07:47:40;;;;;;;;;32.00;26.00;;;;;23.36;79.08;101279.27;110969;1258;14469;-48
2022/08/24 07:50:08;;;;;;;;;26.00;25.33;;;;;23.48;78.56;101281.71;110790;1259;13993;-46
2022/08/24 07:52:35;;;;;;;;;26.50;26.50;;;;;23.53;78.29;101280.20;110721;1258;13883;-47
2022/08/24 07:55:02;;;;;;;;;35.67;31.00;;;;;23.53;78.40;101278.97;110751;1257;14123;-50
2022/08/24 07:57:30;;;;;;;;;40.33;30.67;;;;;23.52;78.62;101277.04;110726;1258;13229;-48
2022/08/24 07:59:57;;;;;;;;;42.33;34.33;;;;;23.51;78.84;101270.61;110853;1258;14276;-46
2022/08/24 08:02:25;;;;;;;;;33.00;31.00;;;;;23.53;78.75;101269.81;110909;1258;14176;-48
2022/08/24 08:04:52;;;;;;;;;40.67;33.00;;;;;23.62;78.49;101271.13;110955;1257;14897;-49
2022/08/24 08:07:19;;;;;;;;;34.00;28.00;;;;;23.64;78.34;101271.79;110954;1258;14488;-49
2022/08/24 08:09:48;;;;;;;;;31.33;27.33;;;;;23.76;77.99;101272.52;111013;1257;16771;-45
2022/08/24 08:12:15;;;;;;;;;31.00;28.33;;;;;23.74;77.85;101276.06;110968;1258;13197;-45
2022/08/24 08:14:43;;;;;;;;;33.33;30.00;;;;;23.76;77.68;101278.54;110949;1258;14470;-46
2022/08/24 08:17:12;;;;;;;;;34.00;29.50;;;;;23.75;77.53;101282.15;110898;1257;14152;-47
2022/08/24 08:19:40;;;;;;;;;36.00;29.50;;;;;23.71;77.44;101280.09;110869;1258;14370;-47
2022/08/24 08:24:52;;;;;;;;;32.00;29.67;;;;;23.67;77.57;101273.96;111037;1257;13908;-51
2022/08/24 08:27:20;;;;;;;;;31.33;29.33;;;;;23.65;77.71;101278.27;111012;1258;16799;-48
2022/08/24 08:29:48;;;;;;;;;32.67;30.00;;;;;23.65;77.82;101282.23;110967;1258;13373;-48
2022/08/24 08:32:18;;;;;;;;;31.67;28.00;;;;;23.59;77.99;101282.89;110987;1258;14819;-47
2022/08/24 08:34:46;;;;;;;;;36.67;31.33;;;;;23.59;78.11;101275.43;111001;1258;14492;-48
2022/08/24 08:37:14;;;;;;;;;36.00;31.67;;;;;23.58;78.26;101275.38;111010;1258;13869;-48
2022/08/24 08:39:41;;;;;;;;;33.00;29.33;;;;;23.65;77.75;101276.41;111063;1258;13381;-44
2022/08/24 08:42:13;;;;;;;;;28.67;26.67;;;;;23.67;77.56;101277.92;110985;1258;14717;-48
2022/08/24 08:44:41;;;;;;;;;31.67;28.33;;;;;23.70;77.36;101283.07;110998;1257;14969;-48
2022/08/24 08:47:08;;;;;;;;;36.33;30.67;;;;;23.75;77.19;101277.94;110892;1258;14828;-49
2022/08/24 08:49:36;;;;;;;;;33.67;30.67;;;;;23.77;77.11;101276.08;111011;1257;15259;-48
2022/08/24 08:52:03;;;;;;;;;33.33;29.33;;;;;23.76;77.32;101279.50;110983;1258;15006;-47
2022/08/24 08:54:31;;;;;;;;;35.00;32.33;;;;;23.76;77.54;101279.52;111018;1259;13126;-47
2022/08/24 08:56:58;;;;;;;;;29.00;27.33;;;;;23.82;77.33;101279.45;110981;1257;14318;-49
2022/08/24 08:59:26;;;;;;;;;35.00;34.00;;;;;23.92;77.04;101280.04;110959;1258;13765;-49
2022/08/24 09:01:53;;;;;;;;;40.33;33.33;;;;;24.05;77.29;101280.68;110937;1258;14746;-48
2022/08/24 09:04:21;;;;;;;;;41.33;33.00;;;;;24.15;77.23;101281.55;110854;1258;14325;-47
2022/08/24 09:06:48;;;;;;;;;34.00;28.50;;;;;24.19;76.93;101280.10;110846;1258;13208;-49
2022/08/24 09:09:16;;;;;;;;;37.67;35.00;;;;;24.31;77.06;101281.59;111040;1259;13248;-48
2022/08/24 09:11:43;;;;;;;;;38.67;31.00;;;;;24.47;76.75;101281.95;110968;1258;14733;-47
2022/08/24 09:14:11;;;;;;;;;41.67;34.67;;;;;24.45;76.62;101283.39;110955;1258;15221;-49
2022/08/24 09:16:38;;;;;;;;;45.33;35.33;;;;;24.43;76.52;101285.98;110930;1258;14424;-50
2022/08/24 09:19:05;;;;;;;;;33.50;31.50;;;;;24.45;76.27;101287.61;110928;1258;14384;-52
2022/08/24 09:21:33;;;;;;;;;34.00;31.00;;;;;24.44;76.18;101285.83;111000;1258;13420;-49
2022/08/24 09:24:00;;;;;;;;;37.67;33.00;;;;;24.52;76.04;101276.46;110904;1258;14748;-48
2022/08/24 09:26:28;;;;;;;;;39.00;32.00;;;;;24.69;75.65;101278.55;110959;1258;14852;-50
2022/08/24 09:28:55;;;;;;;;;35.00;30.00;;;;;24.76;75.39;101280.62;110973;1259;14455;-48
2022/08/24 09:31:22;;;;;;;;;34.67;31.33;;;;;24.76;75.36;101284.00;110957;1258;14822;-49
2022/08/24 09:33:50;;;;;;;;;35.67;31.00;;;;;24.66;75.40;101280.06;110818;1259;13112;-49
2022/08/24 09:36:17;;;;;;;;;37.67;28.00;;;;;24.56;75.64;101275.77;110989;1258;13478;-48
2022/08/24 09:38:45;;;;;;;;;36.33;33.33;;;;;24.54;75.65;101276.43;110956;1258;16953;-49
2022/08/24 09:41:12;;;;;;;;;37.50;33.50;;;;;24.62;75.51;101273.73;110992;1258;14839;-49
2022/08/24 09:43:40;;;;;;;;;33.00;30.00;;;;;24.67;75.42;101279.70;110770;1259;14589;-48
2022/08/24 09:46:07;;;;;;;;;34.33;26.00;;;;;24.85;75.06;101275.51;110895;1258;14995;-48
2022/08/24 09:48:35;;;;;;;;;35.00;31.00;;;;;24.80;75.03;101275.95;111011;1258;13131;-49
2022/08/24 09:51:02;;;;;;;;;29.00;26.67;;;;;24.82;75.03;101275.11;110846;1258;14547;-46
2022/08/24 09:53:30;;;;;;;;;31.67;30.00;;;;;24.90;74.78;101276.53;110983;1258;14876;-48
2022/08/24 09:55:57;;;;;;;;;35.67;32.00;;;;;24.93;74.56;101281.05;110961;1258;14437;-47
2022/08/24 09:58:25;;;;;;;;;30.00;27.00;;;;;24.98;74.18;101285.27;110997;1258;14636;-48
2022/08/24 10:00:52;;;;;;;;;31.50;24.50;;;;;24.97;74.01;101282.92;111042;1258;13194;-47
2022/08/24 10:03:21;;;;;;;;;31.00;29.00;;;;;24.99;74.10;101283.44;110998;1258;13193;-50
2022/08/24 10:05:49;;;;;;;;;29.00;26.00;;;;;24.97;74.05;101284.36;110861;1258;14801;-48
2022/08/24 10:08:16;;;;;;;;;30.33;27.33;;;;;25.03;73.90;101284.23;110931;1258;15218;-51
2022/08/24 10:10:44;;;;;;;;;31.00;27.00;;;;;24.97;73.87;101281.69;110833;1258;15174;-46
2022/08/24 10:13:11;;;;;;;;;27.67;26.67;;;;;25.04;73.60;101281.13;110947;1258;14632;-47
2022/08/24 10:15:38;;;;;;;;;31.67;30.67;;;;;24.93;73.78;101278.45;111012;1258;18131;-50
2022/08/24 10:18:06;;;;;;;;;32.33;27.67;;;;;24.90;73.95;101271.23;110947;1258;14166;-49
2022/08/24 10:20:33;;;;;;;;;34.67;30.00;;;;;25.03;73.71;101282.37;110970;1258;13064;-48
2022/08/24 10:23:01;;;;;;;;;29.33;25.00;;;;;24.96;73.71;101286.20;110945;1258;14537;-49
2022/08/24 10:25:28;;;;;;;;;30.33;27.00;;;;;24.83;73.99;101279.20;110900;1258;14309;-48
2022/08/24 10:27:56;;;;;;;;;34.00;27.00;;;;;24.79;74.15;101289.52;110943;1258;15260;-47
2022/08/24 10:30:24;;;;;;;;;29.33;27.67;;;;;24.73;74.16;101292.14;110973;1258;13147;-49
2022/08/24 10:32:51;;;;;;;;;24.67;24.00;;;;;24.79;74.22;101283.33;110934;1258;15594;-48
2022/08/24 10:35:18;;;;;;;;;25.67;24.67;;;;;24.90;74.15;101284.19;110928;1257;14420;-47
2022/08/24 10:37:46;;;;;;;;;30.00;26.50;;;;;24.99;74.15;101282.52;110972;1258;13741;-48
2022/08/24 10:40:13;;;;;;;;;29.00;26.33;;;;;25.06;73.82;101289.48;110992;1257;15135;-49
2022/08/24 10:45:25;;;;;;;;;30.33;25.00;;;;;24.85;74.25;101289.89;111008;1258;13186;-49
2022/08/24 10:47:53;;;;;;;;;25.00;24.00;;;;;24.77;74.33;101287.98;110962;1258;14841;-49
2022/08/24 10:50:20;;;;;;;;;30.00;25.33;;;;;24.86;74.57;101286.83;110936;1258;14536;-49
2022/08/24 10:52:48;;;;;;;;;25.67;24.33;;;;;24.96;74.23;101287.13;110970;1258;15243;-51
2022/08/24 10:55:15;;;;;;;;;26.33;25.33;;;;;24.91;74.31;101286.55;110961;1258;13977;-50
2022/08/24 10:57:43;;;;;;;;;28.67;26.00;;;;;25.08;73.86;101291.08;111059;1258;11143;-47
2022/08/24 11:00:11;;;;;;;;;27.33;26.33;;;;;25.12;73.80;101292.59;110911;1257;14596;-49
2022/08/24 11:02:39;;;;;;;;;28.33;24.00;;;;;25.05;73.80;101293.16;111009;1257;13060;-49
2022/08/24 11:05:06;;;;;;;;;28.67;25.67;;;;;24.90;74.05;101295.11;110856;1257;14753;-50
2022/08/24 11:07:34;;;;;;;;;26.67;22.00;;;;;24.92;74.25;101286.41;110987;1258;14879;-49
2022/08/24 11:10:01;;;;;;;;;21.33;20.67;;;;;24.87;74.34;101292.61;110988;1258;14795;-48
2022/08/24 11:12:29;;;;;;;;;27.33;25.67;;;;;24.92;74.27;101292.52;111048;1257;13226;-50
2022/08/24 11:14:57;;;;;;;;;25.33;24.33;;;;;24.99;74.06;101293.08;111012;1258;14254;-48